createdAt,value
2023-01-21T00:01:00.781Z,19.73
2023-01-21T00:05:53.843Z,18.80
2023-01-21T00:10:47.797Z,18.27
2023-01-21T00:15:41.567Z,17.38
2023-01-21T00:20:35.185Z,20.83
2023-01-21T00:25:28.469Z,17.50
2023-01-21T00:30:22.112Z,18.98
2023-01-21T00:35:17.100Z,19.73
2023-01-21T00:40:12.332Z,19.15
2023-01-21T00:45:08.206Z,18.80
2023-01-21T00:50:02.953Z,18.42
2023-01-21T00:54:57.925Z,18.80
2023-01-21T00:59:52.375Z,19.77
2023-01-21T01:04:46.698Z,18.15
2023-01-21T01:09:41.447Z,17.77
2023-01-21T01:14:35.194Z,17.30
2023-01-21T01:19:29.402Z,18.67
2023-01-21T01:24:23.794Z,17.40
2023-01-21T01:29:17.499Z,19.30
2023-01-21T01:34:11.442Z,17.48
2023-01-21T01:39:04.774Z,17.27
2023-01-21T01:44:36.807Z,17.05
2023-01-21T01:49:30.635Z,18.25
2023-01-21T01:54:27.977Z,17.90
2023-01-21T01:59:21.512Z,16.98
2023-01-21T02:04:19.185Z,19.67
2023-01-21T02:09:12.729Z,19.13
2023-01-21T02:14:07.033Z,18.77
2023-01-21T02:19:31.969Z,21.48
2023-01-21T02:24:58.959Z,20.23
2023-01-21T02:30:21.325Z,20.35
2023-01-21T02:35:37.307Z,20.30
2023-01-21T02:40:39.702Z,18.98
2023-01-21T02:45:49.345Z,20.23
2023-01-21T02:55:41.399Z,20.90
2023-01-21T03:00:47.512Z,19.57
2023-01-21T03:06:18.985Z,20.40
2023-01-21T03:11:20.135Z,20.83
2023-01-21T03:16:33.652Z,22.13
2023-01-21T03:21:29.053Z,19.67
2023-01-21T03:26:33.383Z,19.92
2023-01-21T03:31:29.468Z,19.27
2023-01-21T03:36:35.544Z,19.35
2023-01-21T03:41:34.314Z,20.60
2023-01-21T03:46:51.919Z,19.57
2023-01-21T03:51:52.572Z,19.10
2023-01-21T03:56:46.892Z,18.10
2023-01-21T04:01:42.448Z,18.17
2023-01-21T04:06:36.629Z,18.60
2023-01-21T04:11:30.201Z,17.20
2023-01-21T04:16:23.647Z,18.40
2023-01-21T04:21:17.156Z,15.68
2023-01-21T04:26:10.800Z,15.85
2023-01-21T04:31:04.365Z,15.20
2023-01-21T04:36:01.592Z,13.38
2023-01-21T04:40:55.370Z,14.25
2023-01-21T04:45:50.292Z,14.43
2023-01-21T04:50:43.717Z,13.02
2023-01-21T04:55:37.634Z,13.52
2023-01-21T05:00:31.536Z,13.38
2023-01-21T05:05:25.097Z,12.07
2023-01-21T05:10:18.920Z,12.55
2023-01-21T05:15:13.041Z,11.75
2023-01-21T05:20:08.032Z,12.18
2023-01-21T05:25:01.659Z,13.20
2023-01-21T05:29:55.256Z,11.63
2023-01-21T05:34:49.200Z,11.15
2023-01-21T05:39:43.030Z,11.43
2023-01-21T05:44:36.190Z,10.55
2023-01-21T05:49:29.728Z,11.75
2023-01-21T05:54:24.062Z,10.77
2023-01-21T05:59:17.549Z,9.75
2023-01-21T06:04:10.637Z,10.55
2023-01-21T06:09:04.360Z,9.65
2023-01-21T06:13:57.828Z,11.68
2023-01-21T06:18:50.913Z,9.48
2023-01-21T06:23:44.853Z,9.52
2023-01-21T06:28:38.254Z,9.30
2023-01-21T06:33:31.598Z,8.73
2023-01-21T06:38:25.009Z,8.50
2023-01-21T06:43:18.614Z,9.70
2023-01-21T06:48:12.620Z,9.57
2023-01-21T06:53:06.059Z,10.30
2023-01-21T06:57:59.695Z,9.27
2023-01-21T07:02:59.133Z,8.85
2023-01-21T07:07:56.405Z,8.18
2023-01-21T07:12:49.844Z,8.02
2023-01-21T07:17:43.620Z,9.55
2023-01-21T07:22:36.915Z,8.25
2023-01-21T07:27:30.897Z,8.52
2023-01-21T07:32:24.501Z,9.30
2023-01-21T07:37:18.317Z,9.00
2023-01-21T07:42:12.101Z,8.43
2023-01-21T07:47:06.360Z,8.65
2023-01-21T07:51:59.658Z,8.82
2023-01-21T07:56:53.496Z,8.52
2023-01-21T08:01:47.073Z,7.35
2023-01-21T08:06:44.077Z,6.63
2023-01-21T08:11:37.283Z,7.35
2023-01-21T08:16:31.738Z,6.88
2023-01-21T08:21:26.139Z,6.03
2023-01-21T08:26:19.859Z,7.65
2023-01-21T08:31:14.015Z,6.43
2023-01-21T08:36:08.461Z,6.38
2023-01-21T08:41:02.098Z,6.47
2023-01-21T08:45:57.661Z,6.22
2023-01-21T08:50:51.818Z,5.25
2023-01-21T08:55:45.899Z,5.00
2023-01-21T09:00:41.666Z,5.32
2023-01-21T09:05:35.875Z,5.80
2023-01-21T09:10:47.939Z,5.35
2023-01-21T09:15:42.400Z,6.45
2023-01-21T09:20:36.092Z,6.28
2023-01-21T09:25:30.089Z,5.55
2023-01-21T09:30:23.344Z,4.72
2023-01-21T09:35:18.125Z,4.60
2023-01-21T09:40:16.828Z,4.50
2023-01-21T09:45:14.704Z,4.60
2023-01-21T09:50:14.932Z,4.28
2023-01-21T09:55:21.342Z,4.28
2023-01-21T10:00:35.271Z,4.28
2023-01-21T10:05:48.976Z,4.15
2023-01-21T10:10:52.319Z,3.72
2023-01-21T10:16:19.355Z,4.85
2023-01-21T10:21:31.466Z,3.67
2023-01-21T10:26:25.351Z,4.10
2023-01-21T10:31:29.585Z,3.42
2023-01-21T10:36:31.478Z,3.92
2023-01-21T10:41:34.215Z,3.47
2023-01-21T10:46:38.157Z,3.90
2023-01-21T10:51:39.075Z,3.63
2023-01-21T10:56:37.454Z,3.72
2023-01-21T11:01:34.901Z,4.00
2023-01-21T11:06:29.707Z,3.70
2023-01-21T11:11:30.425Z,3.65
2023-01-21T11:16:46.478Z,4.32
2023-01-21T11:21:42.683Z,3.70
2023-01-21T11:26:37.405Z,4.63
2023-01-21T11:31:33.427Z,3.90
2023-01-21T11:36:27.512Z,3.75
2023-01-21T11:41:22.466Z,3.35
2023-01-21T11:46:31.480Z,3.38
2023-01-21T11:51:25.901Z,5.43
2023-01-21T11:56:18.804Z,4.95
2023-01-21T12:01:22.365Z,5.78
2023-01-21T12:06:26.425Z,5.18
2023-01-21T12:11:41.208Z,5.80
2023-01-21T12:17:09.804Z,14.00
2023-01-21T12:22:11.556Z,8.30
2023-01-21T12:27:25.948Z,12.45
2023-01-21T12:32:27.315Z,19.42
2023-01-21T12:37:39.295Z,3.72
2023-01-21T12:42:41.403Z,3.70
2023-01-21T12:47:54.700Z,4.35
2023-01-21T12:53:11.317Z,4.57
2023-01-21T12:58:08.821Z,3.60
2023-01-21T13:03:30.911Z,3.58
2023-01-21T13:08:35.887Z,4.07
2023-01-21T13:13:36.107Z,3.53
2023-01-21T13:18:51.908Z,3.25
2023-01-21T13:24:13.196Z,3.92
2023-01-21T13:29:20.499Z,3.88
2023-01-21T13:34:34.888Z,3.30
2023-01-21T13:39:45.208Z,3.70
2023-01-21T13:45:07.654Z,3.97
2023-01-21T13:50:09.345Z,4.35
2023-01-21T13:55:48.944Z,3.90
2023-01-21T14:00:50.835Z,3.70
2023-01-21T14:05:50.358Z,5.93
2023-01-21T14:10:48.972Z,7.45
2023-01-21T14:16:02.704Z,5.55
2023-01-21T14:21:21.501Z,4.28
2023-01-21T14:26:16.976Z,4.10
2023-01-21T14:31:34.328Z,4.35
2023-01-21T14:36:36.722Z,4.65
2023-01-21T14:42:14.832Z,4.45
2023-01-21T14:47:31.439Z,6.15
2023-01-21T14:52:32.700Z,6.30
2023-01-21T14:57:29.091Z,4.35
2023-01-21T15:02:47.392Z,6.53
2023-01-21T15:07:42.784Z,5.55
2023-01-21T15:12:36.945Z,7.05
2023-01-21T15:17:54.537Z,4.55
2023-01-21T15:23:22.412Z,4.40
2023-01-21T15:28:44.859Z,4.97
2023-01-21T15:33:46.379Z,5.72
2023-01-21T15:38:42.170Z,10.05
2023-01-21T15:44:08.281Z,8.80
2023-01-21T15:49:23.211Z,8.18
2023-01-21T15:54:49.768Z,9.27
2023-01-21T16:00:22.571Z,9.15
2023-01-21T16:05:22.174Z,8.38
2023-01-21T16:10:20.443Z,9.07
2023-01-21T16:15:15.994Z,8.48
2023-01-21T16:20:12.237Z,10.15
2023-01-21T16:25:10.223Z,9.73
2023-01-21T16:30:12.551Z,14.00
2023-01-21T16:35:06.811Z,16.85
2023-01-21T16:40:20.563Z,14.82
2023-01-21T16:45:23.610Z,14.80
2023-01-21T16:50:24.606Z,11.48
2023-01-21T16:55:27.571Z,16.15
2023-01-21T17:00:31.835Z,13.57
2023-01-21T17:05:28.213Z,13.15
2023-01-21T17:10:33.432Z,10.07
2023-01-21T17:15:36.249Z,9.38
2023-01-21T17:20:42.285Z,9.93
2023-01-21T17:25:36.594Z,10.75
2023-01-21T17:30:33.825Z,12.32
2023-01-21T17:35:28.939Z,15.27
2023-01-21T17:40:54.191Z,22.40
2023-01-21T17:45:48.293Z,21.95
2023-01-21T17:50:46.776Z,32.65
2023-01-21T17:55:41.361Z,21.08
2023-01-21T18:00:47.018Z,12.73
2023-01-21T18:05:41.717Z,11.18
2023-01-21T18:10:34.802Z,23.50
2023-01-21T18:15:29.192Z,24.02
2023-01-21T18:20:24.639Z,19.30
2023-01-21T18:25:18.808Z,25.10
2023-01-21T18:30:25.576Z,19.27
2023-01-21T18:35:22.760Z,18.30
2023-01-21T18:40:18.976Z,16.83
2023-01-21T18:45:31.383Z,19.13
2023-01-21T18:50:26.687Z,14.52
2023-01-21T18:55:20.935Z,14.55
2023-01-21T19:00:23.584Z,14.77
2023-01-21T19:05:17.497Z,17.13
2023-01-21T19:10:16.616Z,14.30
2023-01-21T19:15:20.715Z,13.73
2023-01-21T19:20:25.971Z,16.70
2023-01-21T19:25:20.384Z,32.22
2023-01-21T19:30:24.234Z,43.10
2023-01-21T19:35:19.423Z,43.03
2023-01-21T19:40:20.667Z,43.95
2023-01-21T19:45:14.323Z,25.08
2023-01-21T19:50:28.309Z,12.90
2023-01-21T19:55:25.901Z,16.67
2023-01-21T20:00:31.990Z,12.68
2023-01-21T20:05:26.951Z,12.50
2023-01-21T20:10:40.404Z,12.45
2023-01-21T20:15:35.534Z,9.60
2023-01-21T20:20:30.861Z,10.75
2023-01-21T20:25:45.197Z,11.32
2023-01-21T20:30:39.235Z,12.43
2023-01-21T20:35:32.194Z,9.82
2023-01-21T20:40:28.173Z,8.10
2023-01-21T20:45:30.534Z,6.88
2023-01-21T20:50:26.166Z,7.00
2023-01-21T20:55:21.046Z,6.38
2023-01-21T21:00:26.575Z,9.88
2023-01-21T21:06:00.585Z,6.95
2023-01-21T21:11:16.814Z,8.27
2023-01-21T21:16:24.403Z,27.05
2023-01-21T21:21:18.338Z,16.23
2023-01-21T21:26:18.432Z,15.75
2023-01-21T21:31:15.794Z,13.00
2023-01-21T21:36:21.097Z,20.50
2023-01-21T21:41:34.572Z,11.00
2023-01-21T21:46:46.126Z,10.45
2023-01-21T21:51:39.171Z,10.23
2023-01-21T21:56:32.734Z,10.52
2023-01-21T22:01:30.383Z,11.32
2023-01-21T22:06:24.517Z,11.82
2023-01-21T22:11:20.014Z,12.68
2023-01-21T22:16:15.057Z,10.80
2023-01-21T22:21:11.979Z,15.00
2023-01-21T22:26:07.666Z,28.40
2023-01-21T22:31:09.103Z,24.10
2023-01-21T22:36:07.311Z,8.57
2023-01-21T22:41:00.386Z,8.85
2023-01-21T22:45:56.697Z,7.15
2023-01-21T22:51:13.359Z,10.43
2023-01-21T22:56:07.813Z,8.18
2023-01-21T23:01:02.543Z,7.40
2023-01-21T23:05:58.112Z,8.02
2023-01-21T23:11:00.479Z,8.43
2023-01-21T23:15:54.019Z,6.88
2023-01-21T23:20:48.410Z,6.75
2023-01-21T23:25:43.232Z,7.93
2023-01-21T23:30:36.793Z,6.25
2023-01-21T23:35:29.624Z,6.93
2023-01-21T23:40:23.719Z,7.30
2023-01-21T23:45:17.707Z,7.57
2023-01-21T23:50:13.086Z,7.60
2023-01-21T23:55:08.193Z,7.93
